METAR Data
IDs: Format: Raw Decoded Include TAF

Data at: 1452 UTC 25 Jan 2020

METAR for:KDNS (Denison Muni, IA, US)
Text:KDNS 251435Z AUTO 28006KT 7SM OVC023 M03/M03 A3006 RMK AO2
Temperature: -3.0°C ( 27°F)
Dewpoint: -3.0°C ( 27°F) [RH = 100%]
Pressure (altimeter):30.06 inches Hg (1018.0 mb)
Winds:from the W (280 degrees) at 7 MPH (6 knots; 3.1 m/s)
Visibility: 7 sm ( 11 km)
Ceiling:2300 feet AGL
Clouds: overcast cloud deck at 2300 feet AGL
QC Flag:automated observation with no human augmentation